Flight Track Log - Related Links

Times and Time Zones

All times are in EDT time to prevent confusion due to time zone crossing. See the PDT4389 flight status page for this flight to view local times or setup timezone preferences in your user account.

Time Position Orientation Groundspeed Altitude Reporting Facility
EDT Latitude Longitude Course Direction KTS MPH feet Rate Location/Type
Sun 09:10:34 PM 39.8667 -75.2667 237° Southwest 136 157 700  Level Philadelphia TRACON
Sun 09:11:04 PM 39.8500 -75.2833 218° Southwest 140 161 1,500 1,133 Climbing Philadelphia TRACON
Sun 09:12:04 PM 39.8000 -75.3000 194° South 160 184 2,400 750 Climbing Philadelphia TRACON
Sun 09:13:04 PM 39.7500 -75.3167 194° South 179 206 3,000 273 Climbing Philadelphia TRACON
Sun 09:14:16 PM 39.7167 -75.3667 229° Southwest 182 209 3,000 238 Level Philadelphia TRACON
Sun 09:15:00 PM 39.7393 -75.4713 237° Southwest  Level FlightAware Approximate
Sun 09:15:10 PM 39.7167 -75.4333 270° West 181 208 3,500  Level Philadelphia TRACON
Sun 09:16:10 PM 39.7000 -75.4833 247° West 158 182 4,400 835 Climbing Philadelphia TRACON
Sun 09:17:05 PM 39.6833 -75.5333 247° West 167 192 5,100 881 Climbing Philadelphia TRACON
Sun 09:17:59 PM 39.6833 -75.5833 270° West 160 184 6,000 900 Climbing Philadelphia TRACON
Sun 09:19:05 PM 39.6667 -75.6500 252° West 138 159 6,900 800 Climbing Philadelphia TRACON
Sun 09:19:59 PM 39.6667 -75.6833 270° West 138 159 7,600 579 Climbing Philadelphia TRACON
Sun 09:20:59 PM 39.6667 -75.7333 270° West 143 165 8,000 200 Climbing Philadelphia TRACON
Sun 09:21:59 PM 39.6500 -75.8000 252° West 168 193 8,000  Level Philadelphia TRACON
Sun 09:24:21 PM 39.6333 -75.9333 261° West 158 182 8,000 -87 Level Potomac TRACON
Sun 09:25:27 PM 39.6167 -75.9833 247° West 168 193 7,700 -476 Descending Potomac TRACON
Sun 09:26:27 PM 39.5833 -76.0333 229° Southwest 176 203 7,000 -645 Descending Potomac TRACON
Sun 09:27:28 PM 39.5500 -76.0833 229° Southwest 179 206 6,400 -522 Descending Potomac TRACON
Sun 09:28:22 PM 39.5333 -76.1167 237° Southwest 181 208 6,000 -211 Descending Potomac TRACON
Sun 09:29:22 PM 39.5000 -76.1667 229° Southwest 175 201 6,000  Level Potomac TRACON
Sun 09:30:22 PM 39.4667 -76.2167 229° Southwest 180 207 6,000  Level Potomac TRACON
Sun 09:31:23 PM 39.4333 -76.2667 229° Southwest 177 204 6,000  Level Potomac TRACON
Sun 09:32:23 PM 39.4000 -76.3167 229° Southwest 176 203 6,000  Level Potomac TRACON
Sun 09:33:24 PM 39.3667 -76.3667 229° Southwest 171 197 6,000  Level Potomac TRACON
Sun 09:34:24 PM 39.3333 -76.4167 229° Southwest 178 205 6,000  Level Potomac TRACON
Sun 09:35:24 PM 39.3000 -76.4500 218° Southwest 177 204 6,000 -50 Level Potomac TRACON
Sun 09:36:24 PM 39.2667 -76.5000 229° Southwest 169 194 5,900  Descending Potomac TRACON
Sun 09:37:30 PM 39.2500 -76.5667 252° West 173 199 6,000 50 Climbing Potomac TRACON
Sun 09:38:24 PM 39.2167 -76.6000 218° Southwest 178 205 6,000 -50 Level Potomac TRACON
Sun 09:39:30 PM 39.1833 -76.6667 237° Southwest 180 207 5,900 -48 Descending Potomac TRACON
Sun 09:40:30 PM 39.1333 -76.7000 207° Southwest 185 213 5,900 50 Level Potomac TRACON
Sun 09:41:30 PM 39.1000 -76.7500 229° Southwest 184 212 6,000 100 Climbing Potomac TRACON
Sun 09:42:30 PM 39.0667 -76.7833 218° Southwest 180 207 6,100 -143 Climbing Potomac TRACON
Sun 09:43:36 PM 39.0167 -76.8333 218° Southwest 189 217 5,700 -500 Descending Potomac TRACON
Sun 09:44:30 PM 38.9833 -76.8833 229° Southwest 207 238 5,100 -895 Descending Potomac TRACON
Sun 09:45:30 PM 38.9167 -76.9000 191° South 229 264 4,000 -1,050 Descending Potomac TRACON
Sun 09:46:30 PM 38.8667 -76.9167 195° South 217 250 3,000 -496 Descending Potomac TRACON
Sun 09:47:31 PM 38.8167 -76.9167 180° South 199 229 3,000 -248 Level Potomac TRACON
Sun 09:48:31 PM 38.7833 -76.9500 218° Southwest 142 163 2,500 -800 Descending Potomac TRACON
Sun 09:49:31 PM 38.8000 -76.9833 303° West 132 152 1,400 -950 Descending Potomac TRACON
Sun 09:50:31 PM 38.8333 -77.0167 322° Northwest 137 158 600 -800 Descending Potomac TRACON
Sun 09:52:00 PM 38.8519 -77.0377 322° Northwest  Level Estimated
Sun 09:59:00 PM 38.8500 -77.0333 226° Southwest  Level FlightAware Approximate
Sun 10:00:00 PM 38.8519 -77.0377 270° West  Level Estimated
Sun 10:01:00 PM 38.8500 -77.0333 226° Southwest  Level FlightAware Approximate

Login

Don't have an account? Register now (free) for customized features, flight alerts, and more!